100LL.CA
Aviation Fuel Pricing for Canadians
Please upgrade your browser - Tested with IE9, FireFox, Chrome, Safari

Fuel Prices Airport Info Airport List METAR / TAF Kneeboard RSS

Reference Airport: Bella Coola, BC
N 52 23 15   W 126 35 45

CYBD Bella Coola, BC
WEATHER
METARCYBD 281400Z 06003KT 040V160 15SM FEW020 FEW052 FEW280 12/10 A3004 RMK CF1SC1CC1 CF TR SC TR CC TR HZ SLP174
REF N 52 23 15  W 126 35 45    6NE    21E (2012)
UTC-8(7)    Elev 117    A5013 LO2
OPR Central Coast Regional District 250-799-5291
Cert Opr
PFA-1 C-2,3,4,5,6
FLT PLN NOTAM FILE CYZT
FIC Kamloops 866-WXBRIEF (Toll free within Canada) or 866-541-4101 (Toll free within Canada & USA)
WXMETAR 15-01Z (DT13-01Z). O/T LWIS
SERVICES 08-15 hrs lcl ctc Pacific Coastal Airlines 250-982-2225
FUEL100LL, JA
PRICESFBO: Bella Coola Air: 100LL public: 2.050; current as of 2017-06-11.
OILAll
S4,5
RWY DATARwy 05(055)/23(235) 4200x100 asphalt Thld 23 displ 206. W twy rstd to 12,500 lbs or less.. R/L
TWYW twy rstd to 12,500 lbs or less.
RCROpr 16-23Z Ltd win maint provided for sked flts only
COMM
RCOPacific rdo 126.7 (FISE)
ATFtfc 122.8 5NM 3100 ASL
NAV
PRORgt hand circuits Rwy 05 (CAR 602.96).
CAUTION10 dike lctd 250 E of thld Rwy 23.
Effective 0901Z 22 June 2017 to 0901Z 17 August 2017